createdAt,value
2023-05-08T00:01:31.291Z,100820.28
2023-05-08T00:03:58.664Z,100839.53
2023-05-08T00:06:27.594Z,100821.91
2023-05-08T00:08:55.632Z,100841.13
2023-05-08T00:11:22.593Z,100841.25
2023-05-08T00:13:49.629Z,100836.87
2023-05-08T00:16:16.863Z,100840.41
2023-05-08T00:18:43.764Z,100838.66
2023-05-08T00:21:10.670Z,100843.13
2023-05-08T00:23:37.623Z,100839.59
2023-05-08T00:26:04.671Z,100836.16
2023-05-08T00:28:32.008Z,100840.66
2023-05-08T00:31:02.447Z,100832.63
2023-05-08T00:33:29.617Z,100838.09
2023-05-08T00:36:04.151Z,100846.16
2023-05-08T00:38:35.075Z,100852.41
2023-05-08T00:41:03.082Z,100848.13
2023-05-08T00:43:30.164Z,100849.06
2023-05-08T00:45:59.785Z,100836.94
2023-05-08T00:48:30.661Z,100848.31
2023-05-08T00:50:59.101Z,100844.94
2023-05-08T00:53:27.353Z,100849.41
2023-05-08T00:55:54.461Z,100854.69
2023-05-08T00:58:23.389Z,100850.28
2023-05-08T01:00:51.520Z,100854.72
2023-05-08T01:03:18.803Z,100863.53
2023-05-08T01:05:46.293Z,100844.22
2023-05-08T01:08:13.516Z,100784.47
2023-05-08T01:10:52.034Z,100828.50
2023-05-08T01:13:32.802Z,100874.25
2023-05-08T01:16:12.241Z,100873.38
2023-05-08T01:18:46.036Z,100876.03
2023-05-08T01:21:21.988Z,100867.22
2023-05-08T01:23:48.973Z,100886.62
2023-05-08T01:26:51.856Z,100889.28
2023-05-08T01:29:35.504Z,100884.03
2023-05-08T01:32:02.821Z,100879.59
2023-05-08T01:34:35.519Z,100891.00
2023-05-08T01:37:14.973Z,100882.25
2023-05-08T01:40:02.580Z,100876.09
2023-05-08T01:42:42.134Z,100880.50
2023-05-08T01:45:29.163Z,100889.31
2023-05-08T01:48:09.178Z,100884.91
2023-05-08T01:51:02.576Z,100887.53
2023-05-08T01:53:33.216Z,100886.66
2023-05-08T01:56:09.715Z,100885.78
2023-05-08T01:58:38.465Z,100891.94
2023-05-08T02:01:06.219Z,100895.50
2023-05-08T02:03:35.316Z,100822.53
2023-05-08T02:06:03.135Z,100890.19
2023-05-08T02:08:32.015Z,100886.75
2023-05-08T02:11:00.721Z,100805.81
2023-05-08T02:13:30.350Z,100870.87
2023-05-08T02:15:59.425Z,100893.75
2023-05-08T02:18:29.885Z,100890.22
2023-05-08T02:20:59.444Z,100891.94
2023-05-08T02:23:27.841Z,100891.94
2023-05-08T02:25:56.317Z,100893.78
2023-05-08T02:28:24.709Z,100901.69
2023-05-08T02:30:52.840Z,100900.78
2023-05-08T02:33:20.883Z,100899.03
2023-05-08T02:35:51.173Z,100901.66
2023-05-08T02:38:21.567Z,100908.69
2023-05-08T02:41:02.242Z,100906.03
2023-05-08T02:43:29.555Z,100898.94
2023-05-08T02:46:17.736Z,100898.88
2023-05-08T02:49:03.649Z,100898.84
2023-05-08T02:51:50.307Z,100905.81
2023-05-08T02:54:40.093Z,100905.78
2023-05-08T02:57:15.721Z,100909.28
2023-05-08T02:59:46.900Z,100917.16
2023-05-08T03:02:22.426Z,100904.78
2023-05-08T03:04:55.563Z,100906.53
2023-05-08T03:07:26.138Z,100833.50
2023-05-08T03:10:03.808Z,100913.56
2023-05-08T03:12:34.079Z,100915.34
2023-05-08T03:15:08.722Z,100915.31
2023-05-08T03:17:38.031Z,100915.31
2023-05-08T03:20:08.416Z,100905.72
2023-05-08T03:22:38.911Z,100913.56
2023-05-08T03:25:09.257Z,100917.06
2023-05-08T03:27:37.522Z,100899.50
2023-05-08T03:30:05.588Z,100911.81
2023-05-08T03:32:34.612Z,100924.09
2023-05-08T03:35:03.869Z,100923.22
2023-05-08T03:37:30.846Z,100880.03
2023-05-08T03:39:58.014Z,100916.09
2023-05-08T03:42:25.539Z,100901.13
2023-05-08T03:44:54.068Z,100924.97
2023-05-08T03:47:22.149Z,100930.22
2023-05-08T03:49:50.312Z,100932.00
2023-05-08T03:52:17.264Z,100928.37
2023-05-08T03:54:44.654Z,100933.75
2023-05-08T03:57:11.678Z,100917.00
2023-05-08T03:59:41.557Z,100931.03
2023-05-08T04:02:17.537Z,100930.97
2023-05-08T04:04:47.315Z,100945.06
2023-05-08T04:07:29.004Z,100937.06
2023-05-08T04:10:21.701Z,100939.78
2023-05-08T04:13:05.551Z,100949.44
2023-05-08T04:15:36.736Z,100950.28
2023-05-08T04:18:09.820Z,100957.31
2023-05-08T04:20:40.565Z,100959.16
2023-05-08T04:23:10.036Z,100960.13
2023-05-08T04:25:39.017Z,100965.34
2023-05-08T04:28:06.171Z,100968.84
2023-05-08T04:30:33.432Z,100974.09
2023-05-08T04:33:03.851Z,100979.31
2023-05-08T04:35:30.790Z,100979.37
2023-05-08T04:37:58.907Z,100987.31
2023-05-08T04:40:25.920Z,100986.34
2023-05-08T04:42:52.893Z,100991.66
2023-05-08T04:45:20.055Z,100998.81
2023-05-08T04:47:46.998Z,100996.13
2023-05-08T04:50:14.018Z,100997.84
2023-05-08T04:52:41.474Z,100998.56
2023-05-08T04:55:09.092Z,101010.97
2023-05-08T04:57:36.205Z,101003.84
2023-05-08T05:00:03.556Z,101007.34
2023-05-08T05:02:30.576Z,101011.81
2023-05-08T05:05:01.458Z,100998.44
2023-05-08T05:07:28.426Z,101019.75
2023-05-08T05:09:55.377Z,101018.00
2023-05-08T05:12:22.290Z,100995.09
2023-05-08T05:14:49.194Z,101026.66
2023-05-08T05:17:16.041Z,101026.69
2023-05-08T05:19:43.054Z,101032.84
2023-05-08T05:22:10.203Z,101027.53
2023-05-08T05:24:37.081Z,101030.88
2023-05-08T05:27:04.674Z,101036.09
2023-05-08T05:29:31.655Z,101032.53
2023-05-08T05:31:58.675Z,101043.97
2023-05-08T05:34:25.772Z,101030.66
2023-05-08T05:36:52.589Z,100998.06
2023-05-08T05:39:19.561Z,101021.09
2023-05-08T05:41:46.621Z,101045.75
2023-05-08T05:44:13.693Z,101041.53
2023-05-08T05:46:42.719Z,101039.31
2023-05-08T05:49:14.383Z,101034.09
2023-05-08T05:51:41.785Z,101039.38
2023-05-08T05:54:08.768Z,100978.50
2023-05-08T05:56:35.724Z,100971.53
2023-05-08T05:59:02.908Z,101049.72
2023-05-08T06:01:32.454Z,101039.97
2023-05-08T06:03:59.638Z,101009.84
2023-05-08T06:06:26.994Z,100955.53
2023-05-08T06:09:34.154Z,101051.19
2023-05-08T06:12:01.362Z,101034.25
2023-05-08T06:14:28.692Z,101045.41
2023-05-08T06:16:56.081Z,101048.75
2023-05-08T06:19:24.614Z,101056.88
2023-05-08T06:21:52.336Z,101059.41
2023-05-08T06:24:19.363Z,101054.75
2023-05-08T06:26:50.865Z,101047.63
2023-05-08T06:29:18.241Z,101057.25
2023-05-08T06:31:45.337Z,101048.62
2023-05-08T06:34:12.802Z,101050.22
2023-05-08T06:36:39.864Z,101046.53
2023-05-08T06:39:07.666Z,101047.03
2023-05-08T06:41:34.709Z,101051.47
2023-05-08T06:44:01.613Z,101057.59
2023-05-08T06:46:30.066Z,101054.81
2023-05-08T06:48:57.183Z,101068.97
2023-05-08T06:51:24.170Z,101063.13
2023-05-08T06:53:51.101Z,101065.81
2023-05-08T06:56:18.079Z,101067.28
2023-05-08T06:58:50.802Z,101077.44
2023-05-08T07:01:28.137Z,101066.47
2023-05-08T07:03:54.991Z,101042.59
2023-05-08T07:06:21.904Z,101059.94
2023-05-08T07:08:49.595Z,101070.44
2023-05-08T07:11:16.559Z,101065.81
2023-05-08T07:13:43.632Z,101030.97
2023-05-08T07:16:11.106Z,101059.66
2023-05-08T07:18:38.401Z,101065.59
2023-05-08T07:21:05.341Z,101061.13
2023-05-08T07:23:32.437Z,101060.78
2023-05-08T07:25:59.561Z,101057.66
2023-05-08T07:28:26.737Z,101026.56
2023-05-08T07:30:53.722Z,101059.78
2023-05-08T07:33:20.924Z,101057.66
2023-05-08T07:35:48.431Z,101058.09
2023-05-08T07:38:15.475Z,101055.31
2023-05-08T07:40:42.818Z,101058.41
2023-05-08T07:43:09.893Z,101057.94
2023-05-08T07:45:37.249Z,101059.78
2023-05-08T07:48:04.480Z,101045.97
2023-05-08T07:50:31.675Z,101065.91
2023-05-08T07:52:58.921Z,101035.59
2023-05-08T07:55:26.155Z,101072.25
2023-05-08T07:57:53.432Z,101039.41
2023-05-08T08:00:20.775Z,101040.87
2023-05-08T08:02:51.278Z,101045.22
2023-05-08T08:05:18.604Z,101043.09
2023-05-08T08:07:45.847Z,101049.44
2023-05-08T08:10:13.055Z,101063.19
2023-05-08T08:12:40.081Z,101064.19
2023-05-08T08:15:07.868Z,100993.59
2023-05-08T08:17:34.898Z,101071.31
2023-05-08T08:20:03.309Z,101070.81
2023-05-08T08:22:30.909Z,101071.88
2023-05-08T08:24:57.875Z,101052.09
2023-05-08T08:27:24.757Z,101063.59
2023-05-08T08:29:58.586Z,101032.06
2023-05-08T08:32:31.771Z,101050.91
2023-05-08T08:34:58.806Z,101060.69
2023-05-08T08:37:52.398Z,101061.19
2023-05-08T08:40:25.314Z,101042.12
2023-05-08T08:43:09.354Z,101047.06
2023-05-08T08:45:42.751Z,101029.44
2023-05-08T08:50:56.402Z,101055.47
2023-05-08T08:53:36.359Z,101060.13
2023-05-08T08:56:18.729Z,101025.47
2023-05-08T08:58:56.901Z,101026.16
2023-05-08T09:01:31.183Z,101054.19
2023-05-08T09:03:59.992Z,101065.66
2023-05-08T09:06:27.879Z,101058.47
2023-05-08T09:08:57.116Z,101043.16
2023-05-08T09:11:28.376Z,101048.00
2023-05-08T09:13:56.099Z,101048.19
2023-05-08T09:16:24.257Z,101044.34
2023-05-08T09:18:51.719Z,101045.62
2023-05-08T09:21:18.998Z,101033.25
2023-05-08T09:24:03.638Z,101039.81
2023-05-08T09:26:38.453Z,101031.53
2023-05-08T09:29:14.355Z,101029.56
2023-05-08T09:31:44.547Z,101034.38
2023-05-08T09:34:27.091Z,101021.00
2023-05-08T09:37:09.961Z,101035.41
2023-05-08T09:39:37.114Z,101034.00
2023-05-08T09:42:06.058Z,101034.91
2023-05-08T09:45:02.713Z,101008.66
2023-05-08T09:47:29.796Z,101007.06
2023-05-08T09:50:14.915Z,101021.13
2023-05-08T09:52:48.019Z,101024.91
2023-05-08T09:55:15.321Z,101028.44
2023-05-08T09:58:03.461Z,101021.06
2023-05-08T10:00:30.664Z,101024.56
2023-05-08T10:03:04.325Z,100990.53
2023-05-08T10:05:34.622Z,101018.88
2023-05-08T10:08:21.290Z,101023.37
2023-05-08T10:10:48.719Z,101012.56
2023-05-08T10:13:16.103Z,101012.72
2023-05-08T10:15:44.686Z,100939.19
2023-05-08T10:18:16.230Z,101009.03
2023-05-08T10:21:00.747Z,101002.38
2023-05-08T10:23:28.999Z,100942.34
2023-05-08T10:26:01.948Z,100986.97
2023-05-08T10:28:40.765Z,100970.56
2023-05-08T10:31:11.784Z,100994.06
2023-05-08T10:33:41.212Z,100983.69
2023-05-08T10:36:10.079Z,100990.84
2023-05-08T10:38:38.033Z,100969.16
2023-05-08T10:41:05.627Z,100986.69
2023-05-08T10:43:33.606Z,100988.00
2023-05-08T10:46:08.427Z,100992.16
2023-05-08T10:48:56.169Z,100979.19
2023-05-08T10:51:35.333Z,100978.25
2023-05-08T10:54:08.899Z,100981.38
2023-05-08T10:56:38.310Z,100977.00
2023-05-08T10:59:06.337Z,100976.31
2023-05-08T11:01:33.477Z,100973.53
2023-05-08T11:04:00.710Z,100981.25
2023-05-08T11:06:43.089Z,100964.72
2023-05-08T11:09:15.723Z,100979.44
2023-05-08T11:11:56.299Z,100966.13
2023-05-08T11:14:24.233Z,100964.31
2023-05-08T11:16:53.941Z,100965.03
2023-05-08T11:19:22.601Z,100981.78
2023-05-08T11:22:15.261Z,100959.09
2023-05-08T11:24:48.716Z,100975.41
2023-05-08T11:27:16.390Z,100943.97
2023-05-08T11:29:45.209Z,100943.53
2023-05-08T11:32:12.361Z,100937.44
2023-05-08T11:34:42.182Z,100928.69
2023-05-08T11:37:32.684Z,100955.19
2023-05-08T11:40:37.988Z,100947.50
2023-05-08T11:43:41.658Z,100952.84
2023-05-08T11:46:20.793Z,100943.13
2023-05-08T11:48:47.972Z,100942.31
2023-05-08T11:51:17.831Z,100877.13
2023-05-08T11:53:45.320Z,100945.16
2023-05-08T11:56:12.495Z,100951.72
2023-05-08T11:58:39.694Z,100952.50
2023-05-08T12:01:06.969Z,100901.00
2023-05-08T12:03:34.449Z,100950.62
2023-05-08T12:06:01.752Z,100929.09
2023-05-08T12:08:28.907Z,100935.59
2023-05-08T12:10:57.416Z,100942.94
2023-05-08T12:13:30.209Z,100932.56
2023-05-08T12:15:59.671Z,100960.28
2023-05-08T12:18:28.506Z,100944.72
2023-05-08T12:21:00.838Z,100940.25
2023-05-08T12:23:32.575Z,100943.66
2023-05-08T12:26:01.040Z,100940.97
2023-05-08T12:28:28.392Z,100946.72
2023-05-08T12:30:56.538Z,100950.72
2023-05-08T12:33:23.970Z,100944.00
2023-05-08T12:35:51.096Z,100919.91
2023-05-08T12:38:26.641Z,100929.00
2023-05-08T12:40:55.799Z,100936.38
2023-05-08T12:43:31.823Z,100940.78
2023-05-08T12:45:58.892Z,100932.56
2023-05-08T12:48:27.178Z,100926.62
2023-05-08T12:50:54.640Z,100923.56
2023-05-08T12:53:22.366Z,100937.25
2023-05-08T12:55:58.053Z,100941.06
2023-05-08T12:58:27.203Z,100870.94
2023-05-08T13:01:36.579Z,100938.37
2023-05-08T13:04:10.472Z,100852.91
2023-05-08T13:06:37.472Z,100941.81
2023-05-08T13:09:04.543Z,100856.72
2023-05-08T13:11:33.449Z,100942.44
2023-05-08T13:14:00.793Z,100922.38
2023-05-08T13:16:27.732Z,100942.13
2023-05-08T13:18:54.887Z,100932.63
2023-05-08T13:21:21.814Z,100941.13
2023-05-08T13:23:48.802Z,100929.13
2023-05-08T13:26:15.880Z,100934.12
2023-05-08T13:28:42.882Z,100940.56
2023-05-08T13:31:09.921Z,100930.72
2023-05-08T13:33:38.402Z,100930.47
2023-05-08T13:36:05.935Z,100926.13
2023-05-08T13:38:34.630Z,100937.09
2023-05-08T13:41:01.620Z,100937.09
2023-05-08T13:43:28.733Z,100923.69
2023-05-08T13:45:56.018Z,100927.19
2023-05-08T13:48:23.058Z,100931.22
2023-05-08T13:50:55.825Z,100934.03
2023-05-08T13:53:22.726Z,100931.97
2023-05-08T13:55:49.762Z,100930.88
2023-05-08T13:58:16.835Z,100930.72
2023-05-08T14:00:43.815Z,100926.66
2023-05-08T14:03:11.012Z,100920.41
2023-05-08T14:05:38.016Z,100901.22
2023-05-08T14:08:05.147Z,100919.09
2023-05-08T14:10:32.209Z,100893.69
2023-05-08T14:12:59.398Z,100924.87
2023-05-08T14:15:31.764Z,100912.88
2023-05-08T14:18:04.148Z,100924.78
2023-05-08T14:20:31.157Z,100923.34
2023-05-08T14:23:00.069Z,100924.50
2023-05-08T14:25:27.441Z,100926.25
2023-05-08T14:27:54.509Z,100928.31
2023-05-08T14:30:21.545Z,100939.53
2023-05-08T14:32:48.820Z,100941.97
2023-05-08T14:35:16.492Z,100934.53
2023-05-08T14:37:43.466Z,100932.94
2023-05-08T14:40:10.687Z,100944.00
2023-05-08T14:42:38.612Z,100946.69
2023-05-08T14:45:06.196Z,100944.84
2023-05-08T14:47:33.928Z,100952.31
2023-05-08T14:50:00.978Z,100911.37
2023-05-08T14:52:28.074Z,100938.31
2023-05-08T14:54:55.154Z,100953.03
2023-05-08T14:57:22.122Z,100893.06
2023-05-08T14:59:55.142Z,100950.38
2023-05-08T15:02:23.889Z,100917.44
2023-05-08T15:04:51.060Z,100954.47
2023-05-08T15:07:18.060Z,100944.00
2023-05-08T15:09:45.038Z,100941.03
2023-05-08T15:12:12.374Z,100900.06
2023-05-08T15:14:39.312Z,100926.56
2023-05-08T15:17:06.298Z,100957.09
2023-05-08T15:19:33.241Z,100926.09
2023-05-08T15:22:00.624Z,100966.50
2023-05-08T15:24:27.626Z,100961.41
2023-05-08T15:26:54.707Z,100970.31
2023-05-08T15:29:22.073Z,100951.16
2023-05-08T15:31:49.397Z,100969.13
2023-05-08T15:34:16.546Z,100972.41
2023-05-08T15:36:43.517Z,100972.91
2023-05-08T15:39:10.933Z,100919.84
2023-05-08T15:41:39.817Z,100979.97
2023-05-08T15:44:08.020Z,100979.06
2023-05-08T15:46:35.008Z,100974.97
2023-05-08T15:49:03.082Z,100983.41
2023-05-08T15:51:30.414Z,100974.94
2023-05-08T15:53:57.918Z,100838.22
2023-05-08T15:56:25.976Z,100972.06
2023-05-08T15:58:53.720Z,100949.25
2023-05-08T16:01:20.956Z,100983.59
2023-05-08T16:03:47.921Z,100968.38
2023-05-08T16:06:14.757Z,100975.59
2023-05-08T16:08:41.703Z,100936.88
2023-05-08T16:11:08.701Z,100979.47
2023-05-08T16:13:35.707Z,100982.41
2023-05-08T16:16:06.049Z,100988.72
2023-05-08T16:18:33.180Z,100880.56
2023-05-08T16:21:00.372Z,100994.16
2023-05-08T16:23:27.471Z,100987.72
2023-05-08T16:25:54.413Z,100884.13
2023-05-08T16:28:21.417Z,100995.12
2023-05-08T16:30:48.382Z,100996.13
2023-05-08T16:33:15.556Z,100997.69
2023-05-08T16:35:42.664Z,100978.75
2023-05-08T16:38:09.715Z,101005.09
2023-05-08T16:40:36.600Z,101008.09
2023-05-08T16:43:03.558Z,101009.19
2023-05-08T16:45:30.960Z,101012.87
2023-05-08T16:47:58.488Z,100986.91
2023-05-08T16:50:25.620Z,101022.41
2023-05-08T16:52:52.541Z,100994.69
2023-05-08T16:55:19.711Z,101023.63
2023-05-08T16:57:46.730Z,101031.09
2023-05-08T17:00:14.148Z,101045.12
2023-05-08T17:02:41.505Z,100932.25
2023-05-08T17:05:09.038Z,101021.16
2023-05-08T17:07:36.077Z,101054.53
2023-05-08T17:10:03.199Z,101055.44
2023-05-08T17:12:30.413Z,101064.06
2023-05-08T17:14:57.281Z,101055.34
2023-05-08T17:17:24.218Z,101055.53
2023-05-08T17:19:51.233Z,101041.94
2023-05-08T17:22:20.552Z,101069.00
2023-05-08T17:24:47.772Z,101072.09
2023-05-08T17:27:14.696Z,101078.22
2023-05-08T17:29:41.704Z,101072.66
2023-05-08T17:32:08.613Z,101078.34
2023-05-08T17:34:35.631Z,101059.97
2023-05-08T17:37:02.577Z,101092.69
2023-05-08T17:39:29.600Z,101065.00
2023-05-08T17:41:56.716Z,101095.06
2023-05-08T17:44:23.941Z,101091.97
2023-05-08T17:46:50.949Z,101066.22
2023-05-08T17:49:19.427Z,101108.44
2023-05-08T17:51:46.776Z,101113.66
2023-05-08T17:54:13.892Z,101112.69
2023-05-08T17:56:40.892Z,101111.53
2023-05-08T17:59:07.775Z,101121.16
2023-05-08T18:01:34.726Z,101117.03
2023-05-08T18:04:01.817Z,101131.59
2023-05-08T18:06:28.828Z,101138.72
2023-05-08T18:08:56.098Z,101128.44
2023-05-08T18:11:25.430Z,101107.13
2023-05-08T18:13:53.328Z,101150.25
2023-05-08T18:16:21.383Z,101153.06
2023-05-08T18:18:49.583Z,101153.22
2023-05-08T18:21:16.699Z,101171.84
2023-05-08T18:23:44.058Z,101167.84
2023-05-08T18:26:15.292Z,101181.16
2023-05-08T18:28:43.821Z,101173.94
2023-05-08T18:31:11.932Z,101179.37
2023-05-08T18:33:39.261Z,101192.75
2023-05-08T18:36:07.309Z,101184.06
2023-05-08T18:38:34.972Z,101194.62
2023-05-08T18:41:03.350Z,101202.81
2023-05-08T18:43:30.404Z,101207.69
2023-05-08T18:45:58.152Z,101218.31
2023-05-08T18:48:26.182Z,101227.44
2023-05-08T18:50:54.320Z,101230.22
2023-05-08T18:53:21.855Z,101237.41
2023-05-08T18:55:48.944Z,101241.03
2023-05-08T18:58:16.395Z,101243.06
2023-05-08T19:00:46.941Z,101217.69
2023-05-08T19:03:14.421Z,101211.84
2023-05-08T19:05:42.274Z,101247.97
2023-05-08T19:08:09.670Z,101249.94
2023-05-08T19:10:36.666Z,101248.50
2023-05-08T19:13:03.763Z,101179.06
2023-05-08T19:15:30.815Z,101260.87
2023-05-08T19:17:57.970Z,101256.56
2023-05-08T19:20:25.542Z,101244.97
2023-05-08T19:22:52.909Z,101234.41
2023-05-08T19:25:20.342Z,101250.31
2023-05-08T19:27:48.126Z,101254.75
2023-05-08T19:30:15.537Z,101263.63
2023-05-08T19:32:42.970Z,101225.06
2023-05-08T19:35:10.134Z,101261.13
2023-05-08T19:37:38.115Z,101186.25
2023-05-08T19:40:06.797Z,101265.94
2023-05-08T19:42:33.908Z,101173.50
2023-05-08T19:45:01.418Z,101246.44
2023-05-08T19:47:28.460Z,101149.75
2023-05-08T19:49:55.577Z,101201.97
2023-05-08T19:52:22.587Z,101215.12
2023-05-08T19:54:49.553Z,101273.34
2023-05-08T19:57:16.536Z,101273.41
2023-05-08T19:59:43.486Z,101268.88
2023-05-08T20:02:10.575Z,101269.94
2023-05-08T20:04:54.504Z,101267.37
2023-05-08T20:07:24.556Z,101270.87
2023-05-08T20:09:51.437Z,101276.12
2023-05-08T20:12:18.527Z,101254.16
2023-05-08T20:14:45.618Z,101270.87
2023-05-08T20:17:12.728Z,101263.06
2023-05-08T20:19:39.743Z,101272.66
2023-05-08T20:22:06.922Z,101270.19
2023-05-08T20:24:33.870Z,101270.22
2023-05-08T20:27:00.784Z,101219.28
2023-05-08T20:29:28.056Z,101233.56
2023-05-08T20:31:55.062Z,101271.50
2023-05-08T20:34:22.279Z,101276.91
2023-05-08T20:36:49.298Z,101276.03
2023-05-08T20:39:16.350Z,101174.72
2023-05-08T20:41:43.304Z,101212.56
2023-05-08T20:44:12.412Z,101267.31
2023-05-08T20:46:40.909Z,101274.28
2023-05-08T20:49:07.900Z,101274.31
2023-05-08T20:51:36.425Z,101202.00
2023-05-08T20:54:03.667Z,101281.34
2023-05-08T20:56:30.685Z,101171.25
2023-05-08T20:58:57.678Z,101244.28
2023-05-08T21:01:24.744Z,101284.81
2023-05-08T21:03:51.677Z,101187.84
2023-05-08T21:06:18.633Z,101292.81
2023-05-08T21:08:45.653Z,101237.97
2023-05-08T21:11:13.005Z,101277.72
2023-05-08T21:13:40.054Z,101258.50
2023-05-08T21:16:08.431Z,101269.22
2023-05-08T21:18:35.508Z,101272.62
2023-05-08T21:21:02.895Z,101270.00
2023-05-08T21:23:31.235Z,101274.41
2023-05-08T21:25:58.234Z,101272.62
2023-05-08T21:28:25.085Z,101264.78
2023-05-08T21:30:52.054Z,101278.00
2023-05-08T21:33:19.076Z,101271.03
2023-05-08T21:35:46.855Z,101242.88
2023-05-08T21:38:13.900Z,101278.03
2023-05-08T21:40:40.959Z,101280.69
2023-05-08T21:43:07.995Z,101274.59
2023-05-08T21:45:35.240Z,101234.88
2023-05-08T21:48:02.543Z,101273.72
2023-05-08T21:50:29.568Z,101277.25
2023-05-08T21:52:56.838Z,101272.88
2023-05-08T21:55:24.181Z,101256.16
2023-05-08T21:57:51.494Z,101277.41
2023-05-08T22:00:19.114Z,101214.75
2023-05-08T22:02:46.440Z,101261.53
2023-05-08T22:05:13.613Z,101258.84
2023-05-08T22:07:41.436Z,101245.62
2023-05-08T22:10:09.475Z,101261.56
2023-05-08T22:12:36.422Z,101264.25
2023-05-08T22:15:09.329Z,101259.84
2023-05-08T22:17:40.297Z,101240.50
2023-05-08T22:20:08.832Z,101144.38
2023-05-08T22:22:35.772Z,101210.56
2023-05-08T22:25:02.733Z,101267.00
2023-05-08T22:27:29.727Z,101247.59
2023-05-08T22:29:56.712Z,101105.63
2023-05-08T22:32:24.494Z,101260.87
2023-05-08T22:34:51.540Z,101233.53
2023-05-08T22:37:18.803Z,101263.53
2023-05-08T22:39:45.728Z,101231.78
2023-05-08T22:42:12.781Z,101256.47
2023-05-08T22:44:39.937Z,101254.72
2023-05-08T22:47:07.099Z,101258.28
2023-05-08T22:49:34.275Z,101260.91
2023-05-08T22:52:01.243Z,101262.69
2023-05-08T22:54:28.070Z,101264.44
2023-05-08T22:56:54.934Z,101251.22
2023-05-08T22:59:22.708Z,101260.03
2023-05-08T23:01:49.639Z,101250.31
2023-05-08T23:04:16.603Z,101260.03
2023-05-08T23:06:43.524Z,101259.16
2023-05-08T23:09:10.522Z,101254.75
2023-05-08T23:11:37.533Z,101254.75
2023-05-08T23:14:04.343Z,101206.16
2023-05-08T23:16:31.265Z,101252.09
2023-05-08T23:18:58.220Z,101252.09
2023-05-08T23:21:25.151Z,101262.69
2023-05-08T23:23:52.903Z,101140.91
2023-05-08T23:26:19.829Z,101250.31
2023-05-08T23:28:46.760Z,101254.72
2023-05-08T23:31:13.612Z,101245.91
2023-05-08T23:33:40.667Z,101193.81
2023-05-08T23:36:08.073Z,101246.78
2023-05-08T23:38:34.912Z,101245.00
2023-05-08T23:41:01.851Z,101109.88
2023-05-08T23:43:28.758Z,101235.22
2023-05-08T23:45:55.764Z,101239.66
2023-05-08T23:48:23.759Z,101231.72
2023-05-08T23:50:50.736Z,101229.06
2023-05-08T23:53:17.711Z,101237.00
2023-05-08T23:55:44.678Z,101213.13
2023-05-08T23:58:11.670Z,101218.47
